Portada
METAR-TAF:

METAR-TAF

Aeropuertos :

Aeropuerto Internacional de Damasco

Damasco, Siria

latitud: 33-25N, longitud: 036-31E, altitud: 608 m

Observación

El informe se hizo hace 15 minutos, a las 04:00 UTC
Viento 6 kt del norte-noreste
Temperatura 15°C
Humedad 63%
Presión 1010 hPa
Visibilidad 10 km o más
sin nubes por debajo de 1500 m y sin presencia de cumulonimbus.

METAR: OSDI 020400Z 03006KT CAVOK 15/08 Q1010

Hora: 07:15 (04:15 UTC)

Pronóstico

Pronóstico válido del 01 a las 18 UTC al 02 a las 24 UTC
Viento 15 kt del suroeste
Visibilidad 10 km o más
sin nubes por debajo de 1500 m y sin presencia de cumulonimbus.
Temporalmente
del 02 a las 00 UTC al 02 a las 09 UTC
Viento 3 kt con dirección variable

TAF: OSDI 0118/0224 23015KT CAVOK TEMPO 0200/0209 VRB03KT

Observaciones y pronósticos meteorológicos de más de 4000 aeropuertos (mensajes METAR y TAF).

Los puntos amarillos y rojos representan las estaciones disponibles.

Ponga el ratón en el punto deseado para ver el nombre de la estación.

Haga clic para ver las observaciones y los pronósticos meteorológicos.

Para cambiar el mapa : haga clic en los botones verdes con una cruz de color negro para hacer un zoom, en el botón verde con un guión para alejar o en las flechas verdes para mapas adyacentes.


METAR-TAF: